sensor_id;sensor_type;location;lat;lon;timestamp;temperature;humidity
16247;DHT22;8231;50.866;7.944;2022-12-05T00:01:50;2.50;99.90
16247;DHT22;8231;50.866;7.944;2022-12-05T00:04:18;2.50;99.90
16247;DHT22;8231;50.866;7.944;2022-12-05T00:06:47;2.50;99.90
16247;DHT22;8231;50.866;7.944;2022-12-05T00:09:16;2.50;99.90
16247;DHT22;8231;50.866;7.944;2022-12-05T00:11:44;2.60;99.90
16247;DHT22;8231;50.866;7.944;2022-12-05T00:14:13;2.60;99.90
16247;DHT22;8231;50.866;7.944;2022-12-05T00:16:42;2.60;99.90
16247;DHT22;8231;50.866;7.944;2022-12-05T00:19:12;2.60;99.90
16247;DHT22;8231;50.866;7.944;2022-12-05T00:21:41;2.60;99.90
16247;DHT22;8231;50.866;7.944;2022-12-05T00:24:12;2.60;99.90
16247;DHT22;8231;50.866;7.944;2022-12-05T00:26:41;2.10;99.90
16247;DHT22;8231;50.866;7.944;2022-12-05T00:29:09;2.60;99.90
16247;DHT22;8231;50.866;7.944;2022-12-05T00:31:37;2.60;99.90
16247;DHT22;8231;50.866;7.944;2022-12-05T00:34:06;2.60;99.90
16247;DHT22;8231;50.866;7.944;2022-12-05T00:36:35;2.50;99.90
16247;DHT22;8231;50.866;7.944;2022-12-05T00:39:05;2.50;99.90
16247;DHT22;8231;50.866;7.944;2022-12-05T00:41:35;2.50;99.90
16247;DHT22;8231;50.866;7.944;2022-12-05T00:44:04;2.50;99.90
16247;DHT22;8231;50.866;7.944;2022-12-05T00:46:33;2.50;99.90
16247;DHT22;8231;50.866;7.944;2022-12-05T00:49:04;2.40;99.90
16247;DHT22;8231;50.866;7.944;2022-12-05T00:51:34;2.40;99.90
16247;DHT22;8231;50.866;7.944;2022-12-05T00:54:04;2.40;99.90
16247;DHT22;8231;50.866;7.944;2022-12-05T00:56:35;2.40;99.90
16247;DHT22;8231;50.866;7.944;2022-12-05T00:59:04;2.40;99.90
16247;DHT22;8231;50.866;7.944;2022-12-05T01:01:35;2.40;99.90
16247;DHT22;8231;50.866;7.944;2022-12-05T01:04:05;2.40;99.90
16247;DHT22;8231;50.866;7.944;2022-12-05T01:06:33;2.50;99.90
16247;DHT22;8231;50.866;7.944;2022-12-05T01:09:02;2.40;99.90
16247;DHT22;8231;50.866;7.944;2022-12-05T01:11:31;2.40;99.90
16247;DHT22;8231;50.866;7.944;2022-12-05T01:14:08;2.40;99.90
16247;DHT22;8231;50.866;7.944;2022-12-05T01:16:38;2.40;99.90
16247;DHT22;8231;50.866;7.944;2022-12-05T01:19:11;2.40;99.90
16247;DHT22;8231;50.866;7.944;2022-12-05T01:21:40;2.40;99.90
16247;DHT22;8231;50.866;7.944;2022-12-05T01:24:08;2.40;99.90
16247;DHT22;8231;50.866;7.944;2022-12-05T01:26:38;2.30;99.90
16247;DHT22;8231;50.866;7.944;2022-12-05T01:29:08;2.30;99.90
16247;DHT22;8231;50.866;7.944;2022-12-05T01:31:37;2.30;99.90
16247;DHT22;8231;50.866;7.944;2022-12-05T01:34:08;2.20;99.90
16247;DHT22;8231;50.866;7.944;2022-12-05T01:36:36;2.20;99.90
16247;DHT22;8231;50.866;7.944;2022-12-05T01:39:06;2.20;99.90
16247;DHT22;8231;50.866;7.944;2022-12-05T01:41:37;2.10;99.90
16247;DHT22;8231;50.866;7.944;2022-12-05T01:46:52;2.20;99.90
16247;DHT22;8231;50.866;7.944;2022-12-05T01:49:23;2.10;99.90
16247;DHT22;8231;50.866;7.944;2022-12-05T01:51:55;2.10;99.90
16247;DHT22;8231;50.866;7.944;2022-12-05T01:54:25;2.00;99.90
16247;DHT22;8231;50.866;7.944;2022-12-05T01:56:56;2.00;99.90
16247;DHT22;8231;50.866;7.944;2022-12-05T01:59:26;1.90;99.90
16247;DHT22;8231;50.866;7.944;2022-12-05T02:01:57;1.90;99.90
16247;DHT22;8231;50.866;7.944;2022-12-05T02:04:26;1.90;99.90
16247;DHT22;8231;50.866;7.944;2022-12-05T02:06:54;1.80;99.90
16247;DHT22;8231;50.866;7.944;2022-12-05T02:09:23;1.80;99.90
16247;DHT22;8231;50.866;7.944;2022-12-05T02:11:53;1.80;99.90
16247;DHT22;8231;50.866;7.944;2022-12-05T02:14:27;1.80;99.90
16247;DHT22;8231;50.866;7.944;2022-12-05T02:17:09;1.80;99.90
16247;DHT22;8231;50.866;7.944;2022-12-05T02:19:55;1.80;99.90
16247;DHT22;8231;50.866;7.944;2022-12-05T02:22:47;1.80;99.90
16247;DHT22;8231;50.866;7.944;2022-12-05T02:25:49;1.80;99.90
16247;DHT22;8231;50.866;7.944;2022-12-05T02:28:36;1.80;99.90
16247;DHT22;8231;50.866;7.944;2022-12-05T02:31:15;1.70;99.90
16247;DHT22;8231;50.866;7.944;2022-12-05T02:33:47;1.70;99.90
16247;DHT22;8231;50.866;7.944;2022-12-05T02:36:21;1.70;99.90
16247;DHT22;8231;50.866;7.944;2022-12-05T02:38:58;1.70;99.90
16247;DHT22;8231;50.866;7.944;2022-12-05T02:41:31;1.70;99.90
16247;DHT22;8231;50.866;7.944;2022-12-05T02:44:03;1.70;99.90
16247;DHT22;8231;50.866;7.944;2022-12-05T02:46:35;1.70;99.90
16247;DHT22;8231;50.866;7.944;2022-12-05T02:49:08;1.70;99.90
16247;DHT22;8231;50.866;7.944;2022-12-05T02:51:40;1.70;99.90
16247;DHT22;8231;50.866;7.944;2022-12-05T02:54:12;1.70;99.90
16247;DHT22;8231;50.866;7.944;2022-12-05T02:56:43;1.70;99.90
16247;DHT22;8231;50.866;7.944;2022-12-05T02:59:12;1.70;99.90
16247;DHT22;8231;50.866;7.944;2022-12-05T03:01:50;1.70;99.90
16247;DHT22;8231;50.866;7.944;2022-12-05T03:04:20;1.70;99.90
16247;DHT22;8231;50.866;7.944;2022-12-05T03:06:51;1.70;99.90
16247;DHT22;8231;50.866;7.944;2022-12-05T03:09:23;1.70;99.90
16247;DHT22;8231;50.866;7.944;2022-12-05T03:11:55;1.70;99.90
16247;DHT22;8231;50.866;7.944;2022-12-05T03:14:31;1.70;99.90
16247;DHT22;8231;50.866;7.944;2022-12-05T03:17:05;1.70;99.90
16247;DHT22;8231;50.866;7.944;2022-12-05T03:19:43;1.70;99.90
16247;DHT22;8231;50.866;7.944;2022-12-05T03:22:18;1.70;99.90
16247;DHT22;8231;50.866;7.944;2022-12-05T03:24:48;1.70;99.90
16247;DHT22;8231;50.866;7.944;2022-12-05T03:27:20;1.60;99.90
16247;DHT22;8231;50.866;7.944;2022-12-05T03:29:53;1.60;99.90
16247;DHT22;8231;50.866;7.944;2022-12-05T03:32:30;1.60;99.90
16247;DHT22;8231;50.866;7.944;2022-12-05T03:35:05;1.70;99.90
16247;DHT22;8231;50.866;7.944;2022-12-05T03:37:42;1.70;99.90
16247;DHT22;8231;50.866;7.944;2022-12-05T03:40:19;1.70;99.90
16247;DHT22;8231;50.866;7.944;2022-12-05T03:42:54;1.70;99.90
16247;DHT22;8231;50.866;7.944;2022-12-05T03:45:30;1.70;99.90
16247;DHT22;8231;50.866;7.944;2022-12-05T03:48:05;1.70;99.90
16247;DHT22;8231;50.866;7.944;2022-12-05T03:50:37;1.70;99.90
16247;DHT22;8231;50.866;7.944;2022-12-05T03:53:10;1.60;99.90
16247;DHT22;8231;50.866;7.944;2022-12-05T03:55:54;1.60;99.90
16247;DHT22;8231;50.866;7.944;2022-12-05T03:58:27;1.60;99.90
16247;DHT22;8231;50.866;7.944;2022-12-05T04:00:58;1.60;99.90
16247;DHT22;8231;50.866;7.944;2022-12-05T04:03:34;1.60;99.90
16247;DHT22;8231;50.866;7.944;2022-12-05T04:06:11;1.60;99.90
16247;DHT22;8231;50.866;7.944;2022-12-05T04:08:44;1.70;99.90
16247;DHT22;8231;50.866;7.944;2022-12-05T04:11:17;1.70;99.90
16247;DHT22;8231;50.866;7.944;2022-12-05T04:13:49;1.70;99.90
16247;DHT22;8231;50.866;7.944;2022-12-05T04:16:21;1.70;99.90
16247;DHT22;8231;50.866;7.944;2022-12-05T04:19:14;1.70;99.90
16247;DHT22;8231;50.866;7.944;2022-12-05T04:21:46;1.70;99.90
16247;DHT22;8231;50.866;7.944;2022-12-05T04:24:16;1.70;99.90
16247;DHT22;8231;50.866;7.944;2022-12-05T04:27:09;1.70;99.90
16247;DHT22;8231;50.866;7.944;2022-12-05T04:29:47;1.70;99.90
16247;DHT22;8231;50.866;7.944;2022-12-05T04:32:18;1.70;99.90
16247;DHT22;8231;50.866;7.944;2022-12-05T04:34:56;1.70;99.90
16247;DHT22;8231;50.866;7.944;2022-12-05T04:37:29;1.70;99.90
16247;DHT22;8231;50.866;7.944;2022-12-05T04:40:03;1.70;99.90
16247;DHT22;8231;50.866;7.944;2022-12-05T04:42:35;2.00;99.90
16247;DHT22;8231;50.866;7.944;2022-12-05T04:45:07;1.70;99.90
16247;DHT22;8231;50.866;7.944;2022-12-05T04:47:41;1.70;99.90
16247;DHT22;8231;50.866;7.944;2022-12-05T04:50:13;1.60;99.90
16247;DHT22;8231;50.866;7.944;2022-12-05T04:52:44;1.60;99.90
16247;DHT22;8231;50.866;7.944;2022-12-05T04:55:16;1.60;99.90
16247;DHT22;8231;50.866;7.944;2022-12-05T04:57:57;1.60;99.90
16247;DHT22;8231;50.866;7.944;2022-12-05T05:00:29;1.60;99.90
16247;DHT22;8231;50.866;7.944;2022-12-05T05:03:03;1.60;99.90
16247;DHT22;8231;50.866;7.944;2022-12-05T05:05:36;1.60;99.90
16247;DHT22;8231;50.866;7.944;2022-12-05T05:08:15;1.60;99.90
16247;DHT22;8231;50.866;7.944;2022-12-05T05:10:53;1.60;99.90
16247;DHT22;8231;50.866;7.944;2022-12-05T05:13:24;1.60;99.90
16247;DHT22;8231;50.866;7.944;2022-12-05T05:15:52;1.60;99.90
16247;DHT22;8231;50.866;7.944;2022-12-05T05:18:20;1.60;99.90
16247;DHT22;8231;50.866;7.944;2022-12-05T05:20:50;1.60;99.90
16247;DHT22;8231;50.866;7.944;2022-12-05T05:23:18;1.60;99.90
16247;DHT22;8231;50.866;7.944;2022-12-05T05:25:52;1.60;99.90
16247;DHT22;8231;50.866;7.944;2022-12-05T05:28:21;1.60;99.90
16247;DHT22;8231;50.866;7.944;2022-12-05T05:30:49;1.60;99.90
16247;DHT22;8231;50.866;7.944;2022-12-05T05:33:18;1.60;99.90
16247;DHT22;8231;50.866;7.944;2022-12-05T05:35:46;1.60;99.90
16247;DHT22;8231;50.866;7.944;2022-12-05T05:38:15;1.60;99.90
16247;DHT22;8231;50.866;7.944;2022-12-05T05:40:43;1.60;99.90
16247;DHT22;8231;50.866;7.944;2022-12-05T05:43:11;1.50;99.90
16247;DHT22;8231;50.866;7.944;2022-12-05T05:45:39;1.50;99.90
16247;DHT22;8231;50.866;7.944;2022-12-05T05:48:07;1.50;99.90
16247;DHT22;8231;50.866;7.944;2022-12-05T05:50:35;1.50;99.90
16247;DHT22;8231;50.866;7.944;2022-12-05T05:53:10;1.50;99.90
16247;DHT22;8231;50.866;7.944;2022-12-05T05:55:40;1.50;99.90
16247;DHT22;8231;50.866;7.944;2022-12-05T05:58:08;1.50;99.90
16247;DHT22;8231;50.866;7.944;2022-12-05T06:00:36;1.50;99.90
16247;DHT22;8231;50.866;7.944;2022-12-05T06:03:04;1.50;99.90
16247;DHT22;8231;50.866;7.944;2022-12-05T06:05:32;1.50;99.90
16247;DHT22;8231;50.866;7.944;2022-12-05T06:08:01;1.50;99.90
16247;DHT22;8231;50.866;7.944;2022-12-05T06:10:30;1.50;99.90
16247;DHT22;8231;50.866;7.944;2022-12-05T06:13:00;1.50;99.90
16247;DHT22;8231;50.866;7.944;2022-12-05T06:15:28;1.40;99.90
16247;DHT22;8231;50.866;7.944;2022-12-05T06:17:56;1.40;99.90
16247;DHT22;8231;50.866;7.944;2022-12-05T06:20:25;1.50;99.90
16247;DHT22;8231;50.866;7.944;2022-12-05T06:22:53;1.50;99.90
16247;DHT22;8231;50.866;7.944;2022-12-05T06:25:21;1.50;99.90
16247;DHT22;8231;50.866;7.944;2022-12-05T06:27:49;1.50;99.90
16247;DHT22;8231;50.866;7.944;2022-12-05T06:30:19;1.50;99.90
16247;DHT22;8231;50.866;7.944;2022-12-05T06:32:47;1.50;99.90
16247;DHT22;8231;50.866;7.944;2022-12-05T06:35:15;1.50;99.90
16247;DHT22;8231;50.866;7.944;2022-12-05T06:37:44;1.50;99.90
16247;DHT22;8231;50.866;7.944;2022-12-05T06:40:12;1.50;99.90
16247;DHT22;8231;50.866;7.944;2022-12-05T06:42:41;1.60;99.90
16247;DHT22;8231;50.866;7.944;2022-12-05T06:45:10;1.60;99.90
16247;DHT22;8231;50.866;7.944;2022-12-05T06:47:39;1.50;99.90
16247;DHT22;8231;50.866;7.944;2022-12-05T06:50:08;1.50;99.90
16247;DHT22;8231;50.866;7.944;2022-12-05T06:52:37;1.50;99.90
16247;DHT22;8231;50.866;7.944;2022-12-05T06:55:05;1.50;99.90
16247;DHT22;8231;50.866;7.944;2022-12-05T06:57:34;1.50;99.90
16247;DHT22;8231;50.866;7.944;2022-12-05T07:00:03;1.50;99.90
16247;DHT22;8231;50.866;7.944;2022-12-05T07:02:51;1.50;99.90
16247;DHT22;8231;50.866;7.944;2022-12-05T07:05:19;1.50;99.90
16247;DHT22;8231;50.866;7.944;2022-12-05T07:07:47;1.50;99.90
16247;DHT22;8231;50.866;7.944;2022-12-05T07:10:16;1.50;99.90
16247;DHT22;8231;50.866;7.944;2022-12-05T07:12:44;1.50;99.90
16247;DHT22;8231;50.866;7.944;2022-12-05T07:15:12;1.60;99.90
16247;DHT22;8231;50.866;7.944;2022-12-05T07:17:40;1.60;99.90
16247;DHT22;8231;50.866;7.944;2022-12-05T07:20:10;1.60;99.90
16247;DHT22;8231;50.866;7.944;2022-12-05T07:22:38;1.60;99.90
16247;DHT22;8231;50.866;7.944;2022-12-05T07:25:07;1.60;99.90
16247;DHT22;8231;50.866;7.944;2022-12-05T07:27:35;1.60;99.90
16247;DHT22;8231;50.866;7.944;2022-12-05T07:30:04;1.60;99.90
16247;DHT22;8231;50.866;7.944;2022-12-05T07:32:32;1.60;99.90
16247;DHT22;8231;50.866;7.944;2022-12-05T07:35:01;1.60;99.90
16247;DHT22;8231;50.866;7.944;2022-12-05T07:37:30;1.70;99.90
16247;DHT22;8231;50.866;7.944;2022-12-05T07:39:58;1.70;99.90
16247;DHT22;8231;50.866;7.944;2022-12-05T07:42:27;1.70;99.90
16247;DHT22;8231;50.866;7.944;2022-12-05T07:44:55;1.60;99.90
16247;DHT22;8231;50.866;7.944;2022-12-05T07:47:23;1.70;99.90
16247;DHT22;8231;50.866;7.944;2022-12-05T07:49:51;1.70;99.90
16247;DHT22;8231;50.866;7.944;2022-12-05T07:52:19;1.70;99.90
16247;DHT22;8231;50.866;7.944;2022-12-05T07:54:48;1.80;99.90
16247;DHT22;8231;50.866;7.944;2022-12-05T07:57:16;1.80;99.90
16247;DHT22;8231;50.866;7.944;2022-12-05T07:59:44;1.70;99.90
16247;DHT22;8231;50.866;7.944;2022-12-05T08:02:13;1.80;99.90
16247;DHT22;8231;50.866;7.944;2022-12-05T08:04:41;1.80;99.90
16247;DHT22;8231;50.866;7.944;2022-12-05T08:07:09;1.80;99.90
16247;DHT22;8231;50.866;7.944;2022-12-05T08:09:37;1.80;99.90
16247;DHT22;8231;50.866;7.944;2022-12-05T08:12:07;1.80;99.90
16247;DHT22;8231;50.866;7.944;2022-12-05T08:14:35;1.80;99.90
16247;DHT22;8231;50.866;7.944;2022-12-05T08:17:03;1.90;99.90
16247;DHT22;8231;50.866;7.944;2022-12-05T08:19:32;1.90;99.90
16247;DHT22;8231;50.866;7.944;2022-12-05T08:22:00;1.90;99.90
16247;DHT22;8231;50.866;7.944;2022-12-05T08:24:28;2.00;99.90
16247;DHT22;8231;50.866;7.944;2022-12-05T08:26:56;2.00;99.90
16247;DHT22;8231;50.866;7.944;2022-12-05T08:29:25;2.00;99.90
16247;DHT22;8231;50.866;7.944;2022-12-05T08:31:54;2.00;99.90
16247;DHT22;8231;50.866;7.944;2022-12-05T08:34:22;2.00;99.90
16247;DHT22;8231;50.866;7.944;2022-12-05T08:36:50;2.10;99.90
16247;DHT22;8231;50.866;7.944;2022-12-05T08:39:18;2.10;99.90
16247;DHT22;8231;50.866;7.944;2022-12-05T08:41:47;2.10;99.90
16247;DHT22;8231;50.866;7.944;2022-12-05T08:44:16;2.10;99.90
16247;DHT22;8231;50.866;7.944;2022-12-05T08:46:47;2.20;99.90
16247;DHT22;8231;50.866;7.944;2022-12-05T08:49:16;2.30;99.90
16247;DHT22;8231;50.866;7.944;2022-12-05T08:51:44;2.30;99.90
16247;DHT22;8231;50.866;7.944;2022-12-05T08:54:13;2.30;99.90
16247;DHT22;8231;50.866;7.944;2022-12-05T08:56:41;2.20;99.90
16247;DHT22;8231;50.866;7.944;2022-12-05T08:59:09;2.20;99.90
16247;DHT22;8231;50.866;7.944;2022-12-05T09:01:37;2.30;99.90
16247;DHT22;8231;50.866;7.944;2022-12-05T09:04:08;2.40;99.90
16247;DHT22;8231;50.866;7.944;2022-12-05T09:06:36;2.40;99.90
16247;DHT22;8231;50.866;7.944;2022-12-05T09:09:07;2.40;99.90
16247;DHT22;8231;50.866;7.944;2022-12-05T09:11:39;2.40;99.90
16247;DHT22;8231;50.866;7.944;2022-12-05T09:14:09;2.50;99.90
16247;DHT22;8231;50.866;7.944;2022-12-05T09:16:38;2.50;99.90
16247;DHT22;8231;50.866;7.944;2022-12-05T09:19:12;2.50;99.90
16247;DHT22;8231;50.866;7.944;2022-12-05T09:21:41;2.60;99.90
16247;DHT22;8231;50.866;7.944;2022-12-05T09:24:10;2.70;99.90
16247;DHT22;8231;50.866;7.944;2022-12-05T09:26:39;2.80;99.90
16247;DHT22;8231;50.866;7.944;2022-12-05T09:29:07;2.80;99.90
16247;DHT22;8231;50.866;7.944;2022-12-05T09:31:43;2.80;99.90
16247;DHT22;8231;50.866;7.944;2022-12-05T09:34:13;2.80;99.90
16247;DHT22;8231;50.866;7.944;2022-12-05T09:36:42;2.80;99.90
16247;DHT22;8231;50.866;7.944;2022-12-05T09:39:10;2.80;99.90
16247;DHT22;8231;50.866;7.944;2022-12-05T09:47:54;2.90;99.90
16247;DHT22;8231;50.866;7.944;2022-12-05T09:50:27;2.90;99.90
16247;DHT22;8231;50.866;7.944;2022-12-05T09:53:03;2.90;99.90
16247;DHT22;8231;50.866;7.944;2022-12-05T09:55:41;2.90;99.90
16247;DHT22;8231;50.866;7.944;2022-12-05T09:58:20;3.00;99.90
16247;DHT22;8231;50.866;7.944;2022-12-05T10:00:51;3.00;99.90
16247;DHT22;8231;50.866;7.944;2022-12-05T10:03:26;2.90;99.90
16247;DHT22;8231;50.866;7.944;2022-12-05T10:06:05;2.90;99.90
16247;DHT22;8231;50.866;7.944;2022-12-05T10:08:41;2.90;99.90
16247;DHT22;8231;50.866;7.944;2022-12-05T10:11:16;3.00;99.90
16247;DHT22;8231;50.866;7.944;2022-12-05T10:13:49;3.10;99.90
16247;DHT22;8231;50.866;7.944;2022-12-05T10:16:25;3.10;99.90
16247;DHT22;8231;50.866;7.944;2022-12-05T10:18:58;3.10;99.90
16247;DHT22;8231;50.866;7.944;2022-12-05T10:21:31;3.10;99.90
16247;DHT22;8231;50.866;7.944;2022-12-05T10:24:02;3.10;99.90
16247;DHT22;8231;50.866;7.944;2022-12-05T10:26:33;3.10;99.90
16247;DHT22;8231;50.866;7.944;2022-12-05T10:29:10;3.10;99.90
16247;DHT22;8231;50.866;7.944;2022-12-05T10:31:44;3.20;99.90
16247;DHT22;8231;50.866;7.944;2022-12-05T10:34:19;3.20;99.90
16247;DHT22;8231;50.866;7.944;2022-12-05T10:36:55;3.20;99.90
16247;DHT22;8231;50.866;7.944;2022-12-05T10:39:26;3.30;99.90
16247;DHT22;8231;50.866;7.944;2022-12-05T10:41:54;3.40;99.90
16247;DHT22;8231;50.866;7.944;2022-12-05T10:44:22;3.30;99.90
16247;DHT22;8231;50.866;7.944;2022-12-05T10:46:50;3.30;99.90
16247;DHT22;8231;50.866;7.944;2022-12-05T10:49:19;3.40;99.90
16247;DHT22;8231;50.866;7.944;2022-12-05T10:51:48;3.40;99.90
16247;DHT22;8231;50.866;7.944;2022-12-05T10:54:22;3.50;99.90
16247;DHT22;8231;50.866;7.944;2022-12-05T10:56:52;3.50;99.90
16247;DHT22;8231;50.866;7.944;2022-12-05T10:59:22;3.60;99.90
16247;DHT22;8231;50.866;7.944;2022-12-05T11:01:52;3.70;99.90
16247;DHT22;8231;50.866;7.944;2022-12-05T11:04:28;3.70;99.90
16247;DHT22;8231;50.866;7.944;2022-12-05T11:06:58;3.80;99.90
16247;DHT22;8231;50.866;7.944;2022-12-05T11:09:30;3.80;99.90
16247;DHT22;8231;50.866;7.944;2022-12-05T11:12:16;3.80;99.90
16247;DHT22;8231;50.866;7.944;2022-12-05T11:14:57;3.90;99.90
16247;DHT22;8231;50.866;7.944;2022-12-05T11:17:31;3.90;99.90
16247;DHT22;8231;50.866;7.944;2022-12-05T11:19:59;3.90;99.90
16247;DHT22;8231;50.866;7.944;2022-12-05T11:22:32;4.00;99.90
16247;DHT22;8231;50.866;7.944;2022-12-05T11:25:23;3.90;99.90
16247;DHT22;8231;50.866;7.944;2022-12-05T11:27:52;3.80;99.90
16247;DHT22;8231;50.866;7.944;2022-12-05T11:30:28;3.80;99.90
16247;DHT22;8231;50.866;7.944;2022-12-05T11:33:11;3.80;99.90
16247;DHT22;8231;50.866;7.944;2022-12-05T11:35:39;3.80;99.90
16247;DHT22;8231;50.866;7.944;2022-12-05T11:38:10;3.70;99.90
16247;DHT22;8231;50.866;7.944;2022-12-05T11:40:48;3.70;99.90
16247;DHT22;8231;50.866;7.944;2022-12-05T11:43:36;3.70;99.90
16247;DHT22;8231;50.866;7.944;2022-12-05T11:46:15;3.70;99.90
16247;DHT22;8231;50.866;7.944;2022-12-05T11:49:05;3.70;99.90
16247;DHT22;8231;50.866;7.944;2022-12-05T11:51:38;3.60;99.90
16247;DHT22;8231;50.866;7.944;2022-12-05T11:54:38;3.50;99.90
16247;DHT22;8231;50.866;7.944;2022-12-05T11:58:10;3.50;99.90
16247;DHT22;8231;50.866;7.944;2022-12-05T12:00:49;3.50;99.90
16247;DHT22;8231;50.866;7.944;2022-12-05T12:03:44;3.40;99.90
16247;DHT22;8231;50.866;7.944;2022-12-05T12:06:26;3.30;99.90
16247;DHT22;8231;50.866;7.944;2022-12-05T12:09:14;3.30;99.90
16247;DHT22;8231;50.866;7.944;2022-12-05T12:11:55;3.20;99.90
16247;DHT22;8231;50.866;7.944;2022-12-05T12:14:32;3.20;99.90
16247;DHT22;8231;50.866;7.944;2022-12-05T12:17:12;3.20;99.90
16247;DHT22;8231;50.866;7.944;2022-12-05T12:19:54;3.10;99.90
16247;DHT22;8231;50.866;7.944;2022-12-05T12:22:37;3.10;99.90
16247;DHT22;8231;50.866;7.944;2022-12-05T12:25:21;3.00;99.90
16247;DHT22;8231;50.866;7.944;2022-12-05T12:27:58;3.00;99.90
16247;DHT22;8231;50.866;7.944;2022-12-05T12:30:43;3.00;99.90
16247;DHT22;8231;50.866;7.944;2022-12-05T12:33:14;3.00;99.90
16247;DHT22;8231;50.866;7.944;2022-12-05T12:35:58;3.00;99.90
16247;DHT22;8231;50.866;7.944;2022-12-05T12:38:37;3.00;99.90
16247;DHT22;8231;50.866;7.944;2022-12-05T12:41:31;3.00;99.90
16247;DHT22;8231;50.866;7.944;2022-12-05T12:44:12;3.00;99.90
16247;DHT22;8231;50.866;7.944;2022-12-05T12:46:52;3.00;99.90
16247;DHT22;8231;50.866;7.944;2022-12-05T12:49:37;2.90;99.90
16247;DHT22;8231;50.866;7.944;2022-12-05T12:52:12;2.90;99.90
16247;DHT22;8231;50.866;7.944;2022-12-05T12:55:00;2.90;99.90
16247;DHT22;8231;50.866;7.944;2022-12-05T12:57:45;2.90;99.90
16247;DHT22;8231;50.866;7.944;2022-12-05T13:00:21;2.80;99.90
16247;DHT22;8231;50.866;7.944;2022-12-05T13:02:55;2.80;99.90
16247;DHT22;8231;50.866;7.944;2022-12-05T13:05:32;2.80;99.90
16247;DHT22;8231;50.866;7.944;2022-12-05T13:08:05;2.80;99.90
16247;DHT22;8231;50.866;7.944;2022-12-05T13:10:40;2.80;99.90
16247;DHT22;8231;50.866;7.944;2022-12-05T13:13:12;2.80;99.90
16247;DHT22;8231;50.866;7.944;2022-12-05T13:15:44;2.70;99.90
16247;DHT22;8231;50.866;7.944;2022-12-05T13:18:16;2.70;99.90
16247;DHT22;8231;50.866;7.944;2022-12-05T13:20:47;2.70;99.90
16247;DHT22;8231;50.866;7.944;2022-12-05T13:23:18;2.70;99.90
16247;DHT22;8231;50.866;7.944;2022-12-05T13:25:48;2.70;99.90
16247;DHT22;8231;50.866;7.944;2022-12-05T13:28:25;2.70;99.90
16247;DHT22;8231;50.866;7.944;2022-12-05T13:30:54;2.70;99.90
16247;DHT22;8231;50.866;7.944;2022-12-05T13:33:32;2.70;99.90
16247;DHT22;8231;50.866;7.944;2022-12-05T13:36:05;2.70;99.90
16247;DHT22;8231;50.866;7.944;2022-12-05T13:39:01;2.80;99.90
16247;DHT22;8231;50.866;7.944;2022-12-05T13:41:49;2.70;99.90
16247;DHT22;8231;50.866;7.944;2022-12-05T13:44:38;2.70;99.90
16247;DHT22;8231;50.866;7.944;2022-12-05T13:47:22;2.70;99.90
16247;DHT22;8231;50.866;7.944;2022-12-05T13:49:55;2.70;99.90
16247;DHT22;8231;50.866;7.944;2022-12-05T13:52:30;2.80;99.90
16247;DHT22;8231;50.866;7.944;2022-12-05T13:55:02;2.80;99.90
16247;DHT22;8231;50.866;7.944;2022-12-05T13:57:51;2.70;99.90
16247;DHT22;8231;50.866;7.944;2022-12-05T14:00:31;2.80;99.90
16247;DHT22;8231;50.866;7.944;2022-12-05T14:03:06;2.80;99.90
16247;DHT22;8231;50.866;7.944;2022-12-05T14:05:48;2.80;99.90
16247;DHT22;8231;50.866;7.944;2022-12-05T14:11:24;2.70;99.90
16247;DHT22;8231;50.866;7.944;2022-12-05T14:13:53;2.70;99.90
16247;DHT22;8231;50.866;7.944;2022-12-05T14:16:43;2.70;99.90
16247;DHT22;8231;50.866;7.944;2022-12-05T14:22:14;2.60;99.90
16247;DHT22;8231;50.866;7.944;2022-12-05T14:24:52;2.60;99.90
16247;DHT22;8231;50.866;7.944;2022-12-05T14:27:32;2.60;99.90
16247;DHT22;8231;50.866;7.944;2022-12-05T14:30:18;2.60;99.90
16247;DHT22;8231;50.866;7.944;2022-12-05T14:32:48;2.50;99.90
16247;DHT22;8231;50.866;7.944;2022-12-05T14:35:27;2.50;99.90
16247;DHT22;8231;50.866;7.944;2022-12-05T14:38:01;2.50;99.90
16247;DHT22;8231;50.866;7.944;2022-12-05T14:40:32;2.80;99.90
16247;DHT22;8231;50.866;7.944;2022-12-05T14:43:02;2.50;99.90
16247;DHT22;8231;50.866;7.944;2022-12-05T14:45:35;2.50;99.90
16247;DHT22;8231;50.866;7.944;2022-12-05T14:48:24;2.50;99.90
16247;DHT22;8231;50.866;7.944;2022-12-05T14:50:54;2.50;99.90
16247;DHT22;8231;50.866;7.944;2022-12-05T14:53:33;2.50;99.90
16247;DHT22;8231;50.866;7.944;2022-12-05T14:56:10;2.50;99.90
16247;DHT22;8231;50.866;7.944;2022-12-05T14:58:43;2.50;99.90
16247;DHT22;8231;50.866;7.944;2022-12-05T15:01:15;2.40;99.90
16247;DHT22;8231;50.866;7.944;2022-12-05T15:04:16;2.40;99.90
16247;DHT22;8231;50.866;7.944;2022-12-05T15:06:48;2.40;99.90
16247;DHT22;8231;50.866;7.944;2022-12-05T15:09:40;2.40;99.90
16247;DHT22;8231;50.866;7.944;2022-12-05T15:12:14;2.40;99.90
16247;DHT22;8231;50.866;7.944;2022-12-05T15:14:47;2.40;99.90
16247;DHT22;8231;50.866;7.944;2022-12-05T15:17:21;2.40;99.90
16247;DHT22;8231;50.866;7.944;2022-12-05T15:19:54;2.30;99.90
16247;DHT22;8231;50.866;7.944;2022-12-05T15:22:25;2.30;99.90
16247;DHT22;8231;50.866;7.944;2022-12-05T15:24:56;2.40;99.90
16247;DHT22;8231;50.866;7.944;2022-12-05T15:27:24;2.30;99.90
16247;DHT22;8231;50.866;7.944;2022-12-05T15:29:53;2.40;99.90
16247;DHT22;8231;50.866;7.944;2022-12-05T15:32:24;2.40;99.90
16247;DHT22;8231;50.866;7.944;2022-12-05T15:34:58;2.40;99.90
16247;DHT22;8231;50.866;7.944;2022-12-05T15:37:32;2.40;99.90
16247;DHT22;8231;50.866;7.944;2022-12-05T15:40:09;2.30;99.90
16247;DHT22;8231;50.866;7.944;2022-12-05T15:42:42;2.30;99.90
16247;DHT22;8231;50.866;7.944;2022-12-05T15:45:16;2.30;99.90
16247;DHT22;8231;50.866;7.944;2022-12-05T15:47:49;2.30;99.90
16247;DHT22;8231;50.866;7.944;2022-12-05T15:50:24;2.30;99.90
16247;DHT22;8231;50.866;7.944;2022-12-05T15:52:55;2.30;99.90
16247;DHT22;8231;50.866;7.944;2022-12-05T15:55:28;2.40;99.90
16247;DHT22;8231;50.866;7.944;2022-12-05T15:58:04;2.30;99.90
16247;DHT22;8231;50.866;7.944;2022-12-05T16:00:44;2.40;99.90
16247;DHT22;8231;50.866;7.944;2022-12-05T16:03:17;2.30;99.90
16247;DHT22;8231;50.866;7.944;2022-12-05T16:05:49;2.30;99.90
16247;DHT22;8231;50.866;7.944;2022-12-05T16:08:19;2.30;99.90
16247;DHT22;8231;50.866;7.944;2022-12-05T16:10:51;2.30;99.90
16247;DHT22;8231;50.866;7.944;2022-12-05T16:13:23;2.30;99.90
16247;DHT22;8231;50.866;7.944;2022-12-05T16:15:53;2.30;99.90
16247;DHT22;8231;50.866;7.944;2022-12-05T16:18:25;2.30;99.90
16247;DHT22;8231;50.866;7.944;2022-12-05T16:20:54;2.30;99.90
16247;DHT22;8231;50.866;7.944;2022-12-05T16:23:25;2.30;99.90
16247;DHT22;8231;50.866;7.944;2022-12-05T16:28:57;2.30;99.90
16247;DHT22;8231;50.866;7.944;2022-12-05T16:31:25;2.30;99.90
16247;DHT22;8231;50.866;7.944;2022-12-05T16:34:03;2.30;99.90
16247;DHT22;8231;50.866;7.944;2022-12-05T16:36:33;2.30;99.90
16247;DHT22;8231;50.866;7.944;2022-12-05T16:39:04;2.20;99.90
16247;DHT22;8231;50.866;7.944;2022-12-05T16:41:34;2.20;99.90
16247;DHT22;8231;50.866;7.944;2022-12-05T16:44:07;2.20;99.90
16247;DHT22;8231;50.866;7.944;2022-12-05T16:46:53;2.20;99.90
16247;DHT22;8231;50.866;7.944;2022-12-05T16:49:39;2.20;99.90
16247;DHT22;8231;50.866;7.944;2022-12-05T16:52:13;2.20;99.90
16247;DHT22;8231;50.866;7.944;2022-12-05T16:54:45;2.30;99.90
16247;DHT22;8231;50.866;7.944;2022-12-05T16:57:15;2.20;99.90
16247;DHT22;8231;50.866;7.944;2022-12-05T16:59:45;2.30;99.90